Time;durP1;ratioP1;P1;durP2;ratioP2;P2;SDS_P1;SDS_P2;PMS_P1;PMS_P2;Temp;Humidity;BMP_temperature;BMP_pressure;BME280_temperature;BME280_humidity;BME280_pressure;Samples;Min_cycle;Max_cycle;Signal;HPM_P1;HPM_P2
2023/04/01 13:45:10;;;;;;;1.03;0.87;;;20.70;81.20;;;;;;4961806;28;20454;-86
2023/04/01 13:47:59;;;;;;;1.00;0.80;;;20.70;81.70;;;;;;4942697;29;20485;-86
2023/04/01 13:50:45;;;;;;;2.47;0.97;;;20.70;81.70;;;;;;4948721;29;20451;-85
2023/04/01 13:53:24;;;;;;;4.33;1.20;;;20.70;81.90;;;;;;4955872;29;20442;-85
2023/04/01 13:56:05;;;;;;;1.57;1.10;;;20.70;81.80;;;;;;4955986;29;20807;-84
2023/04/01 13:59:05;;;;;;;4.47;1.27;;;20.70;81.10;;;;;;4956967;29;20445;-89
2023/04/01 14:01:42;;;;;;;2.70;1.10;;;20.70;81.10;;;;;;4956616;29;20489;-91
2023/04/01 15:47:20;;;;;;;1.40;1.03;;;20.70;86.60;;;;;;4964591;28;20451;-85
2023/04/01 15:49:57;;;;;;;1.10;1.00;;;20.70;86.20;;;;;;4968813;28;20430;-84
2023/04/01 15:52:36;;;;;;;1.40;1.30;;;20.70;85.70;;;;;;4971831;28;20440;-85
2023/04/01 15:55:27;;;;;;;6.40;1.10;;;20.70;85.80;;;;;;4973683;28;20448;-84
2023/04/01 15:58:17;;;;;;;5.40;1.30;;;20.70;85.90;;;;;;4958814;28;20452;-84
2023/04/01 16:00:51;;;;;;;2.17;1.13;;;20.70;85.70;;;;;;4968250;28;20442;-89
2023/04/01 16:03:40;;;;;;;1.43;1.10;;;20.70;85.20;;;;;;4965563;28;20445;-88
2023/04/01 16:06:22;;;;;;;3.37;0.90;;;20.70;85.40;;;;;;4965455;28;20929;-93
2023/04/01 16:09:14;;;;;;;1.70;1.10;;;20.70;85.40;;;;;;4967959;28;20495;-87
2023/04/01 16:11:48;;;;;;;1.47;1.00;;;20.70;85.20;;;;;;4966763;28;20438;-84
2023/04/01 16:14:29;;;;;;;2.40;1.10;;;20.70;85.10;;;;;;4965527;28;20445;-86
2023/04/01 16:17:09;;;;;;;1.93;1.40;;;20.70;85.70;;;;;;4965578;28;20937;-90
2023/04/01 16:19:52;;;;;;;1.20;1.00;;;20.70;84.00;;;;;;4957840;29;20434;-90
2023/04/01 16:22:24;;;;;;;1.20;0.90;;;20.70;84.10;;;;;;4957912;29;20449;-85
2023/04/01 16:24:58;;;;;;;2.10;0.97;;;20.70;84.30;;;;;;4958002;29;20775;-85
2023/04/01 16:27:31;;;;;;;1.20;0.90;;;20.90;84.50;;;;;;4957209;28;20441;-86
2023/04/01 16:30:03;;;;;;;1.30;1.00;;;20.70;84.10;;;;;;4957382;29;20445;-92
2023/04/01 16:32:45;;;;;;;1.20;1.00;;;20.70;83.90;;;;;;4957898;29;20449;-87
2023/04/01 16:35:29;;;;;;;1.10;1.00;;;20.60;83.70;;;;;;4958126;29;20442;-87
2023/04/01 16:38:06;;;;;;;2.83;1.10;;;20.60;83.70;;;;;;4957650;29;21021;-89
2023/04/01 16:40:45;;;;;;;1.20;1.00;;;20.70;83.40;;;;;;4957670;29;20444;-87
2023/04/01 16:43:20;;;;;;;1.60;1.10;;;20.70;83.30;;;;;;4957632;29;20926;-87
2023/04/01 16:45:55;;;;;;;2.97;1.10;;;20.70;83.30;;;;;;4957729;29;20434;-87
2023/04/01 16:48:26;;;;;;;1.20;1.10;;;20.60;83.50;;;;;;4968017;28;20592;-89
2023/04/01 16:51:00;;;;;;;3.07;1.00;;;20.60;83.50;;;;;;4976771;28;20799;-87
2023/04/01 16:53:38;;;;;;;2.33;1.47;;;20.60;83.60;;;;;;4976822;28;20452;-89
2023/04/01 16:56:12;;;;;;;2.60;1.57;;;20.60;83.60;;;;;;4976901;28;20455;-85
2023/04/01 16:58:44;;;;;;;1.70;0.90;;;20.80;84.00;;;;;;4976699;28;20928;-89
2023/04/01 17:01:15;;;;;;;1.87;1.20;;;20.60;83.80;;;;;;4976598;28;20465;-88
2023/04/01 17:03:45;;;;;;;1.37;1.13;;;20.60;83.90;;;;;;4976694;28;20463;-89
2023/04/01 17:06:24;;;;;;;9.93;1.20;;;20.60;83.90;;;;;;4976678;28;20445;-87
2023/04/01 17:09:12;;;;;;;1.20;1.00;;;20.60;83.60;;;;;;4976401;28;21018;-86
2023/04/01 17:11:44;;;;;;;1.40;0.90;;;20.70;83.90;;;;;;4976408;28;20458;-90
2023/04/01 17:14:19;;;;;;;1.00;0.80;;;20.60;83.80;;;;;;4976445;28;20452;-90
2023/04/01 17:17:11;;;;;;;1.10;0.90;;;20.60;83.90;;;;;;4976682;28;20429;-86
2023/04/01 17:19:49;;;;;;;2.20;1.37;;;20.60;83.90;;;;;;4976404;28;20452;-87
2023/04/01 17:22:28;;;;;;;1.30;1.07;;;20.60;83.70;;;;;;4976339;28;20509;-86
2023/04/01 17:25:14;;;;;;;2.63;1.20;;;20.60;83.40;;;;;;4976478;28;20440;-87
2023/04/01 17:27:48;;;;;;;2.60;1.00;;;20.60;83.60;;;;;;4976332;28;20790;-86
2023/04/01 17:30:28;;;;;;;2.03;1.00;;;20.60;83.70;;;;;;4975766;28;21009;-86
2023/04/01 17:33:39;;;;;;;1.97;0.90;;;20.50;83.40;;;;;;4975950;28;20455;-84
2023/04/01 17:36:17;;;;;;;2.93;1.20;;;20.50;83.50;;;;;;4976066;28;20440;-89
2023/04/01 17:39:25;;;;;;;1.40;1.10;;;20.50;83.70;;;;;;4975583;28;20463;-86
2023/04/01 17:41:55;;;;;;;1.73;1.10;;;20.50;84.00;;;;;;4965668;28;20465;-88
2023/04/01 17:44:39;;;;;;;1.40;1.10;;;20.50;83.80;;;;;;4976168;28;20451;-89
2023/04/01 17:47:22;;;;;;;1.40;1.30;;;20.50;83.60;;;;;;4975831;28;20436;-87
2023/04/01 17:49:59;;;;;;;1.10;0.90;;;20.50;83.60;;;;;;4975704;28;20512;-87
2023/04/01 17:52:30;;;;;;;1.30;1.00;;;20.50;82.70;;;;;;4976147;28;20449;-86
2023/04/01 17:55:15;;;;;;;1.60;1.20;;;20.50;82.40;;;;;;4975633;28;20448;-90
2023/04/01 17:57:50;;;;;;;1.40;0.90;;;20.50;82.30;;;;;;4975737;28;20795;-85
2023/04/01 18:00:27;;;;;;;1.80;1.00;;;20.50;82.40;;;;;;4975520;28;21058;-90
2023/04/01 18:03:10;;;;;;;1.10;1.00;;;20.50;82.40;;;;;;4975579;28;20436;-89
2023/04/01 18:05:58;;;;;;;1.20;0.97;;;20.50;82.90;;;;;;4975375;28;20440;-90
2023/04/01 18:08:47;;;;;;;1.93;1.10;;;20.50;82.90;;;;;;4975273;28;20992;-89
2023/04/01 18:11:26;;;;;;;1.17;0.97;;;20.50;83.30;;;;;;4975429;28;20451;-90
2023/04/01 18:14:20;;;;;;;2.70;1.10;;;20.50;83.50;;;;;;4975381;28;20476;-88
2023/04/01 18:17:00;;;;;;;1.10;0.90;;;20.50;83.70;;;;;;4975384;28;20492;-86
2023/04/01 18:19:39;;;;;;;1.50;1.10;;;20.40;83.40;;;;;;4975370;28;20435;-86
2023/04/01 18:22:17;;;;;;;1.20;0.90;;;20.50;83.70;;;;;;4975107;28;20449;-86
2023/04/01 18:24:55;;;;;;;2.43;1.20;;;20.50;84.00;;;;;;4974983;28;20436;-86
2023/04/01 18:27:30;;;;;;;1.40;1.10;;;20.50;83.40;;;;;;4974986;28;20436;-89
2023/04/01 18:30:07;;;;;;;1.20;1.10;;;20.40;82.60;;;;;;4975108;28;20489;-87
2023/04/01 18:32:38;;;;;;;2.30;1.10;;;20.40;82.90;;;;;;4974919;28;20449;-91
2023/04/01 18:35:18;;;;;;;2.70;1.20;;;20.50;83.90;;;;;;4976400;28;20480;-92
2023/04/01 18:37:50;;;;;;;1.90;1.10;;;20.50;83.30;;;;;;4958061;28;20528;-89
2023/04/01 18:40:24;;;;;;;2.90;1.00;;;20.50;83.00;;;;;;4975130;28;20442;-89
2023/04/01 18:43:01;;;;;;;1.47;1.00;;;20.50;83.30;;;;;;4975773;28;20441;-90
2023/04/01 18:45:31;;;;;;;1.40;1.20;;;20.50;83.60;;;;;;4974752;28;20453;-90
2023/04/01 18:48:12;;;;;;;3.97;1.33;;;20.50;83.40;;;;;;4974666;28;20993;-91
2023/04/01 18:50:43;;;;;;;1.53;1.13;;;20.50;83.80;;;;;;4974516;28;20850;-91
2023/04/01 18:53:19;;;;;;;1.50;0.93;;;20.50;83.80;;;;;;4974600;28;20445;-91
2023/04/01 18:55:50;;;;;;;1.30;1.20;;;20.50;83.60;;;;;;4974751;28;20424;-92
2023/04/01 18:58:28;;;;;;;1.70;1.17;;;20.50;83.60;;;;;;4974777;28;20528;-92
2023/04/01 19:01:20;;;;;;;1.23;1.07;;;20.50;83.60;;;;;;4974363;28;20473;-91
2023/04/01 19:04:01;;;;;;;1.10;0.90;;;20.50;83.50;;;;;;4974778;28;20436;-91
2023/04/01 19:06:32;;;;;;;3.30;1.10;;;20.50;83.20;;;;;;4974471;28;20940;-91
2023/04/01 19:09:16;;;;;;;1.30;1.00;;;20.50;82.70;;;;;;4974841;28;20570;-92
2023/04/01 19:11:51;;;;;;;1.00;0.80;;;20.50;82.40;;;;;;4974558;28;20433;-91
2023/04/01 19:14:25;;;;;;;1.50;1.00;;;20.50;82.50;;;;;;4974719;28;20421;-91
2023/04/01 19:17:01;;;;;;;1.50;0.83;;;20.50;82.50;;;;;;4974619;28;20785;-92
2023/04/01 19:19:37;;;;;;;1.20;1.00;;;20.50;82.90;;;;;;4974708;28;20441;-93
2023/04/01 19:22:19;;;;;;;1.30;1.00;;;20.50;83.30;;;;;;4974480;28;20440;-92
2023/04/01 19:25:13;;;;;;;3.23;1.17;;;20.50;83.50;;;;;;4974633;28;20449;-90
2023/04/01 19:27:45;;;;;;;1.87;0.90;;;20.50;83.80;;;;;;4974349;28;20492;-91
2023/04/01 19:30:29;;;;;;;1.50;1.00;;;20.50;84.10;;;;;;4974266;28;20543;-91
2023/04/01 19:33:06;;;;;;;2.33;1.10;;;20.50;84.30;;;;;;4974323;28;20525;-91
2023/04/01 19:35:42;;;;;;;1.37;1.23;;;20.50;84.80;;;;;;4974490;28;20451;-91
2023/04/01 19:38:16;;;;;;;1.97;1.20;;;20.50;84.70;;;;;;4974262;28;20507;-92
2023/04/01 19:40:56;;;;;;;1.10;0.90;;;20.60;85.00;;;;;;4974239;28;20642;-93
2023/04/01 19:43:45;;;;;;;1.43;1.00;;;20.50;84.90;;;;;;4974525;28;20517;-93
2023/04/01 19:46:20;;;;;;;1.10;0.90;;;20.60;84.90;;;;;;4974610;28;20437;-91
2023/04/01 19:48:59;;;;;;;1.40;1.20;;;20.60;85.20;;;;;;4974064;28;20480;-90
2023/04/01 19:51:35;;;;;;;1.10;0.80;;;20.60;85.10;;;;;;4974418;28;20947;-90
2023/04/01 19:54:14;;;;;;;2.03;1.00;;;20.60;85.60;;;;;;4974340;28;20450;-93
2023/04/01 19:56:48;;;;;;;2.37;0.93;;;20.60;85.80;;;;;;4974555;28;20447;-91
2023/04/01 19:59:23;;;;;;;2.10;1.17;;;20.70;86.00;;;;;;4974832;28;20440;-93
2023/04/01 20:01:58;;;;;;;2.33;1.17;;;20.70;86.00;;;;;;4974301;28;20464;-90
2023/04/01 20:04:30;;;;;;;1.43;1.10;;;20.70;85.90;;;;;;4977713;28;20436;-91
2023/04/01 20:07:00;;;;;;;1.30;0.80;;;20.60;86.10;;;;;;4977851;28;20443;-92
2023/04/01 20:09:43;;;;;;;1.30;0.90;;;20.60;85.70;;;;;;4978685;28;20567;-92
2023/04/01 20:12:19;;;;;;;4.50;0.90;;;20.60;86.10;;;;;;4977609;28;20536;-92
2023/04/01 20:14:50;;;;;;;1.00;0.80;;;20.60;85.90;;;;;;4977918;28;20456;-90
2023/04/01 20:17:24;;;;;;;5.10;1.07;;;20.60;86.00;;;;;;4977602;28;20438;-94
2023/04/01 20:19:58;;;;;;;1.10;1.00;;;20.60;86.00;;;;;;4977331;28;20920;-92
2023/04/01 20:22:35;;;;;;;1.20;0.90;;;20.60;86.20;;;;;;4977292;28;21008;-91
2023/04/01 20:25:12;;;;;;;1.30;0.90;;;20.60;86.10;;;;;;4977583;28;20917;-92
2023/04/01 20:27:46;;;;;;;1.37;1.20;;;20.60;86.20;;;;;;4977566;28;20469;-93
2023/04/01 20:30:42;;;;;;;1.27;1.00;;;20.60;86.30;;;;;;4976968;28;20504;-91
2023/04/01 20:33:37;;;;;;;1.40;0.90;;;20.60;86.30;;;;;;4977545;28;20440;-92
2023/04/01 20:36:15;;;;;;;1.20;0.90;;;20.60;86.30;;;;;;4973283;28;20447;-91
2023/04/01 20:39:15;;;;;;;1.20;1.03;;;20.70;86.30;;;;;;4976894;28;20523;-91
2023/04/01 20:41:55;;;;;;;1.40;1.10;;;20.50;86.10;;;;;;4977666;28;20445;-96
2023/04/01 20:44:34;;;;;;;1.30;0.93;;;20.50;86.10;;;;;;4977775;28;20436;-90
2023/04/01 20:47:11;;;;;;;1.60;0.90;;;20.50;86.00;;;;;;4977136;28;20849;-92
2023/04/01 20:49:46;;;;;;;1.17;0.80;;;20.50;86.10;;;;;;4976813;28;20552;-90
2023/04/01 20:52:25;;;;;;;1.40;1.07;;;20.50;86.10;;;;;;4977778;28;20425;-90
2023/04/01 20:55:17;;;;;;;1.10;0.90;;;20.50;86.20;;;;;;4977377;28;20847;-90
2023/04/01 20:57:51;;;;;;;2.40;1.00;;;20.60;86.50;;;;;;4971308;28;20457;-90
2023/04/01 21:00:32;;;;;;;1.13;0.90;;;20.50;86.50;;;;;;4977221;28;20519;-91
2023/04/01 21:03:13;;;;;;;1.07;0.80;;;20.50;86.60;;;;;;4977102;28;20464;-91
2023/04/01 21:05:59;;;;;;;1.40;1.20;;;20.50;86.20;;;;;;4976703;28;20437;-92
2023/04/01 21:08:36;;;;;;;1.10;0.93;;;20.50;87.00;;;;;;4976673;28;20444;-91
2023/04/01 21:11:08;;;;;;;1.13;0.83;;;20.50;86.90;;;;;;4976556;28;20484;-89
2023/04/01 21:13:53;;;;;;;1.20;0.90;;;20.50;87.00;;;;;;4976155;28;20448;-89
2023/04/01 21:16:31;;;;;;;3.30;1.00;;;20.60;86.60;;;;;;4976590;28;20432;-87
2023/04/01 21:19:20;;;;;;;1.10;0.90;;;20.60;86.30;;;;;;4976936;28;20445;-90
2023/04/01 21:22:19;;;;;;;1.77;1.03;;;20.60;86.50;;;;;;4976273;28;20531;-90
2023/04/01 21:25:22;;;;;;;1.40;1.07;;;20.60;86.60;;;;;;4976174;28;20878;-94
2023/04/01 21:28:04;;;;;;;1.07;0.80;;;20.60;86.40;;;;;;4976308;28;20517;-92
2023/04/01 21:30:44;;;;;;;1.60;1.20;;;20.60;86.90;;;;;;4976458;28;20492;-92
2023/04/01 21:33:39;;;;;;;2.23;0.93;;;20.50;87.10;;;;;;4976183;28;20536;-93
2023/04/01 21:36:19;;;;;;;2.90;0.90;;;20.60;87.80;;;;;;4969346;28;20998;-92
2023/04/01 21:39:03;;;;;;;1.20;1.00;;;20.50;87.70;;;;;;4976092;28;20445;-92
2023/04/01 21:41:49;;;;;;;1.10;1.00;;;20.50;87.80;;;;;;4976769;28;20453;-91
2023/04/01 21:44:36;;;;;;;1.10;0.90;;;20.50;88.00;;;;;;4975814;28;20461;-93
2023/04/01 21:47:55;;;;;;;1.40;0.90;;;20.50;88.00;;;;;;4976709;28;20838;-90
2023/04/01 21:50:59;;;;;;;1.50;0.80;;;20.50;87.90;;;;;;4959174;28;20499;-92
2023/04/01 21:53:56;;;;;;;1.93;0.80;;;20.50;88.00;;;;;;4976021;28;20781;-91
2023/04/01 21:56:35;;;;;;;1.10;0.80;;;20.50;87.80;;;;;;4975663;28;20453;-92
2023/04/01 21:59:38;;;;;;;1.00;0.87;;;20.50;88.00;;;;;;4975814;28;20443;-92
2023/04/01 22:02:42;;;;;;;2.80;1.00;;;20.50;87.80;;;;;;4975364;28;20457;-88
2023/04/01 22:05:12;;;;;;;2.00;1.00;;;20.50;88.00;;;;;;4975499;28;20802;-88
2023/04/01 22:07:46;;;;;;;1.20;1.00;;;20.50;87.80;;;;;;4974913;28;20445;-88
2023/04/01 22:10:22;;;;;;;1.20;0.90;;;20.50;87.60;;;;;;4974794;28;20583;-88
2023/04/01 22:12:55;;;;;;;2.20;0.83;;;20.50;87.80;;;;;;4975105;28;20862;-89
2023/04/01 22:15:31;;;;;;;1.77;0.80;;;20.50;87.70;;;;;;4975205;28;20793;-89
2023/04/01 22:18:07;;;;;;;2.00;0.97;;;20.50;87.60;;;;;;4974579;28;20535;-88
2023/04/01 22:20:44;;;;;;;1.87;0.90;;;20.50;87.70;;;;;;4974995;28;20466;-89
2023/04/01 22:23:27;;;;;;;1.10;0.80;;;20.50;87.90;;;;;;4975008;28;20963;-88
2023/04/01 22:26:01;;;;;;;1.70;1.23;;;20.50;87.80;;;;;;4975381;28;20437;-89
2023/04/01 22:28:33;;;;;;;1.07;0.83;;;20.50;87.90;;;;;;4975015;28;20443;-89
2023/04/01 22:31:01;;;;;;;2.30;1.00;;;20.40;87.60;;;;;;4974904;28;21027;-89
2023/04/01 22:33:36;;;;;;;1.47;1.00;;;20.40;87.60;;;;;;4975086;28;20447;-88
2023/04/01 22:36:16;;;;;;;4.17;0.90;;;20.40;88.20;;;;;;4975219;28;20447;-89
2023/04/01 22:38:56;;;;;;;1.20;1.00;;;20.40;87.50;;;;;;4975088;28;20437;-89
2023/04/01 22:41:32;;;;;;;1.10;0.90;;;20.50;87.30;;;;;;4974821;28;20452;-89
2023/04/01 22:44:00;;;;;;;1.10;0.80;;;20.40;87.40;;;;;;4975057;28;20456;-89
2023/04/01 22:46:54;;;;;;;1.10;0.80;;;20.40;87.10;;;;;;4975018;28;20448;-89
2023/04/01 22:49:27;;;;;;;1.20;1.00;;;20.40;87.10;;;;;;4974705;28;20813;-89
2023/04/01 22:51:57;;;;;;;3.67;1.00;;;20.40;87.30;;;;;;4974973;28;20441;-89
2023/04/01 22:54:28;;;;;;;1.10;0.90;;;20.40;87.40;;;;;;4974979;28;20441;-88
2023/04/01 22:57:00;;;;;;;1.07;0.80;;;20.40;87.60;;;;;;4974809;28;20437;-89
2023/04/01 22:59:35;;;;;;;1.10;0.90;;;20.40;87.60;;;;;;4974954;28;20440;-89
2023/04/01 23:02:07;;;;;;;1.30;0.87;;;20.40;87.70;;;;;;4974757;28;20919;-89
2023/04/01 23:04:39;;;;;;;2.17;1.03;;;20.40;87.50;;;;;;4974878;28;20432;-89
2023/04/01 23:07:25;;;;;;;1.00;0.80;;;20.40;88.10;;;;;;4974876;28;20443;-88
2023/04/01 23:09:54;;;;;;;2.50;0.80;;;20.30;87.80;;;;;;4974986;28;20437;-89
2023/04/01 23:12:23;;;;;;;1.30;0.90;;;20.30;87.80;;;;;;4974872;28;20455;-89
2023/04/01 23:14:54;;;;;;;1.30;0.90;;;20.30;87.80;;;;;;4974557;28;20449;-89
2023/04/01 23:17:36;;;;;;;1.10;0.90;;;20.30;88.30;;;;;;4974486;28;20925;-88
2023/04/01 23:20:16;;;;;;;1.00;0.70;;;20.30;88.30;;;;;;4975302;28;20820;-89
2023/04/01 23:22:54;;;;;;;1.17;1.00;;;20.30;87.90;;;;;;4974507;28;20429;-89
2023/04/01 23:25:33;;;;;;;1.07;0.80;;;20.30;87.80;;;;;;4974684;28;20805;-89
2023/04/01 23:28:24;;;;;;;1.10;0.90;;;20.30;88.10;;;;;;4974601;28;20437;-89
2023/04/01 23:30:52;;;;;;;1.10;0.80;;;20.30;87.90;;;;;;4974312;28;20562;-89
2023/04/01 23:33:27;;;;;;;1.10;0.90;;;20.50;88.70;;;;;;4974498;28;20459;-89
2023/04/01 23:35:56;;;;;;;1.13;0.80;;;20.30;88.20;;;;;;4974829;28;20457;-89
2023/04/01 23:38:25;;;;;;;1.27;0.80;;;20.20;87.90;;;;;;4976955;28;20441;-88
2023/04/01 23:40:54;;;;;;;1.20;0.90;;;20.20;86.60;;;;;;4977949;28;20449;-89
2023/04/01 23:43:27;;;;;;;1.10;0.90;;;20.30;88.00;;;;;;4978212;28;20441;-89
2023/04/01 23:45:54;;;;;;;1.60;0.97;;;20.20;87.60;;;;;;4978297;28;20774;-89
2023/04/01 23:48:33;;;;;;;1.00;0.70;;;20.20;87.50;;;;;;4977932;28;20567;-89
2023/04/01 23:51:01;;;;;;;1.10;0.80;;;20.30;87.60;;;;;;4978038;28;20487;-89
2023/04/01 23:53:31;;;;;;;1.00;0.80;;;20.20;87.40;;;;;;4978340;28;20451;-88
2023/04/01 23:55:58;;;;;;;1.50;0.80;;;20.20;87.70;;;;;;4978114;28;20425;-89
2023/04/01 23:58:28;;;;;;;1.00;0.80;;;20.20;87.50;;;;;;4978009;28;20459;-89
